Главная страница
METAR-TAF:

METAR-TAF

Аэропорты :

Вьё-Фор, Сент-Люсия

широта: 13-45N, долгота: 060-57W, высота над уровнем моря: 3 м

Текущие метеонаблюдения

Эта сводка был подготовлена 40 минут назад, в 13:00 UTC
Ветер 22 Узел от восточный
Температура 29°C
Влажность 66%
Давление 1017 hPa
Видимость 10 км и более
небольшая облачность на высоте 2600 фута

METAR: TLPL 231300Z 10022KT 9999 FEW026 29/22 Q1017 NOSIG

Время: 09:40 (13:40 UTC)

Прогноз

Эта сводка был подготовлена 2 часа и 40 минут назад, в 11:00 UTC
Прогноз действительный с 23-го 12 UTC до 24-го 12 UTC
Ветер 20 Узел от восточный
Видимость 10 км и более
Отдельные облака на высоте 2500 фута
временами
С 23-го 18 UTC до 24-го 06 UTC
ливневые дожди
Вероятность 40% :
временами
С 23-го 15 UTC до 23-го 21 UTC
Ветер 20 Узел от восточный с порывами до 30 Узел

TAF: TLPL 231100Z 2312/2412 09020KT 9999 SCT025 TEMPO 2318/2406 SHRA PROB40 TEMPO 2315/2321 09020G30KT

Метеонаблюдения и прогнозы для более 4000 аэропортов (сводки METAR и TAF).

Имеющиеся станции представлены на карте желтыми и красными точками.

Чтобы увидеть название станции, наведите на нее мышь.

Затем щелкните, чтобы увидеть метеонаблюдения и метеопрогнозы.

Управление картой: чтобы увеличить масштаб, щелкните зеленые кнопки с черным крестиком; чтобы уменьшить масштаб, щелкните зеленую кнопку с тире; для просмотра соседних карт щелкайте зеленые стрелки.


METAR-TAF: